Talladega, Alabama
Current Conditions -  °F | °C
As of 6:15 AM on Monday 24 Nov 2014 (Local Time) from KASN Reporting Station
Scattered Clouds Scattered Clouds  
Wind Chill: 18°   Ceiling: Unl
Heat Index: 18°   Visibility: 10mi
Dew Point: 15°   Wind: 8mph
Humidity: 86%   Direction: 200°SSW
Pressure: 29.75"   Gusts: NA
Location:  33.43°N, 86.1°W
Report Text: KASN 241215Z AUTO 20007KT 10SM SCT028 18/15 A2975 RMK AO2 T01760153
Loading
Personal Weather Stations






























Interactive Weather Map New forecast layout! Learn more

10-Day Weather Forecast

Advertisements
Track Severe Weather on mobile